createdAt,value
2018-03-28T00:00:30.986Z,41.20
2018-03-28T00:02:58.559Z,39.17
2018-03-28T00:05:26.930Z,41.20
2018-03-28T00:07:54.548Z,41.53
2018-03-28T00:10:22.118Z,42.17
2018-03-28T00:12:49.703Z,41.60
2018-03-28T00:15:17.321Z,38.93
2018-03-28T00:17:44.897Z,37.17
2018-03-28T00:20:12.498Z,43.00
2018-03-28T00:22:40.080Z,42.67
2018-03-28T00:25:08.457Z,42.17
2018-03-28T00:27:36.830Z,39.37
2018-03-28T00:30:05.257Z,40.63
2018-03-28T00:32:32.874Z,37.30
2018-03-28T00:35:01.217Z,38.13
2018-03-28T00:37:28.791Z,36.07
2018-03-28T00:39:56.416Z,38.97
2018-03-28T00:42:24.045Z,36.77
2018-03-28T00:44:51.613Z,39.43
2018-03-28T00:47:25.157Z,41.57
2018-03-28T00:49:52.736Z,40.37
2018-03-28T00:52:20.307Z,38.47
2018-03-28T00:54:47.966Z,36.60
2018-03-28T00:57:15.567Z,40.63
2018-03-28T00:59:43.179Z,35.47
2018-03-28T01:02:10.758Z,38.50
2018-03-28T01:04:39.124Z,39.83
2018-03-28T01:07:06.763Z,43.60
2018-03-28T01:09:34.389Z,40.17
2018-03-28T01:12:01.964Z,36.00
2018-03-28T01:14:29.539Z,41.77
2018-03-28T01:16:57.172Z,39.37
2018-03-28T01:19:24.786Z,39.57
2018-03-28T01:21:52.358Z,39.83
2018-03-28T01:24:19.917Z,42.33
2018-03-28T01:26:47.531Z,40.27
2018-03-28T01:29:15.106Z,39.07
2018-03-28T01:31:42.713Z,40.40
2018-03-28T01:34:11.082Z,40.67
2018-03-28T01:36:38.646Z,41.33
2018-03-28T01:39:06.250Z,38.70
2018-03-28T01:41:33.859Z,40.07
2018-03-28T01:44:01.419Z,40.03
2018-03-28T01:46:29.031Z,41.83
2018-03-28T01:48:56.605Z,38.77
2018-03-28T01:51:24.219Z,42.50
2018-03-28T01:53:52.562Z,40.33
2018-03-28T01:56:20.177Z,41.37
2018-03-28T01:58:47.746Z,43.13
2018-03-28T02:01:15.354Z,41.20
2018-03-28T02:03:42.936Z,45.97
2018-03-28T02:06:10.542Z,45.57
2018-03-28T02:08:38.112Z,45.80
2018-03-28T02:11:05.727Z,43.13
2018-03-28T02:13:34.053Z,48.87
2018-03-28T02:16:01.692Z,45.20
2018-03-28T02:18:29.325Z,44.97
2018-03-28T02:20:57.662Z,48.17
2018-03-28T02:23:25.231Z,50.87
2018-03-28T02:25:52.837Z,48.17
2018-03-28T02:28:21.208Z,45.13
2018-03-28T02:30:48.830Z,47.83
2018-03-28T02:33:16.407Z,45.30
2018-03-28T02:35:43.984Z,48.33
2018-03-28T02:38:11.631Z,51.40
2018-03-28T02:40:39.235Z,44.63
2018-03-28T02:43:06.864Z,51.30
2018-03-28T02:45:34.439Z,47.60
2018-03-28T02:48:02.815Z,50.50
2018-03-28T02:50:31.171Z,43.73
2018-03-28T02:52:58.833Z,45.80
2018-03-28T02:55:26.404Z,50.07
2018-03-28T02:57:54.126Z,46.80
2018-03-28T03:00:23.894Z,48.53
2018-03-28T03:02:51.739Z,46.40
2018-03-28T03:05:19.314Z,51.10
2018-03-28T03:07:46.931Z,51.83
2018-03-28T03:10:14.508Z,53.07
2018-03-28T03:12:42.140Z,52.10
2018-03-28T03:15:09.753Z,53.27
2018-03-28T03:17:37.317Z,49.70
2018-03-28T03:20:04.898Z,48.93
2018-03-28T03:22:33.266Z,53.13
2018-03-28T03:25:00.882Z,50.33
2018-03-28T03:27:28.455Z,53.20
2018-03-28T03:29:56.068Z,56.13
2018-03-28T03:32:23.630Z,55.97
2018-03-28T03:34:51.245Z,57.60
2018-03-28T03:37:18.856Z,57.23
2018-03-28T03:39:46.423Z,60.10
2018-03-28T03:42:14.042Z,62.37
2018-03-28T03:44:41.609Z,60.57
2018-03-28T03:47:09.223Z,63.90
2018-03-28T03:49:36.795Z,64.30
2018-03-28T03:52:04.371Z,65.97
2018-03-28T03:54:31.996Z,63.50
2018-03-28T03:56:59.621Z,62.03
2018-03-28T03:59:28.003Z,68.50
2018-03-28T04:01:56.354Z,63.33
2018-03-28T04:04:23.984Z,66.67
2018-03-28T04:06:51.568Z,68.60
2018-03-28T04:09:19.186Z,65.00
2018-03-28T04:11:46.755Z,69.53
2018-03-28T04:14:14.361Z,76.10
2018-03-28T04:16:41.969Z,68.23
2018-03-28T04:19:09.602Z,73.73
2018-03-28T04:21:37.202Z,73.00
2018-03-28T04:24:04.776Z,68.93
2018-03-28T04:26:32.388Z,74.73
2018-03-28T04:28:59.970Z,77.40
2018-03-28T04:31:28.481Z,71.63
2018-03-28T04:33:56.056Z,75.93
2018-03-28T04:36:23.702Z,74.80
2018-03-28T04:38:51.362Z,75.13
2018-03-28T04:41:18.933Z,81.63
2018-03-28T04:43:46.544Z,78.17
2018-03-28T04:46:14.941Z,78.00
2018-03-28T04:48:42.537Z,80.63
2018-03-28T04:51:10.141Z,80.10
2018-03-28T04:53:37.751Z,80.73
2018-03-28T04:56:05.472Z,83.57
2018-03-28T04:58:33.081Z,79.97
2018-03-28T05:01:00.706Z,81.37
2018-03-28T05:03:28.310Z,88.20
2018-03-28T05:05:55.924Z,83.93
2018-03-28T05:08:23.535Z,82.53
2018-03-28T05:10:51.140Z,88.83
2018-03-28T05:13:18.779Z,90.70
2018-03-28T05:15:46.481Z,92.37
2018-03-28T05:18:14.039Z,87.13
2018-03-28T05:20:42.478Z,87.47
2018-03-28T05:23:10.174Z,94.33
2018-03-28T05:25:38.511Z,90.83
2018-03-28T05:28:06.125Z,94.33
2018-03-28T05:30:33.705Z,101.93
2018-03-28T05:33:01.374Z,90.00
2018-03-28T05:35:28.955Z,102.60
2018-03-28T05:37:57.197Z,94.20
2018-03-28T05:40:24.807Z,89.57
2018-03-28T05:42:52.426Z,94.43
2018-03-28T05:45:20.006Z,91.60
2018-03-28T05:47:47.610Z,89.27
2018-03-28T05:50:15.183Z,99.10
2018-03-28T05:52:42.790Z,99.37
2018-03-28T05:55:11.382Z,94.87
2018-03-28T05:57:38.956Z,92.83
2018-03-28T06:00:07.302Z,94.17
2018-03-28T06:02:34.885Z,89.57
2018-03-28T06:05:02.577Z,97.07
2018-03-28T06:07:30.248Z,95.73
2018-03-28T06:09:57.827Z,106.43
2018-03-28T06:12:25.567Z,100.43
2018-03-28T06:14:53.184Z,101.93
2018-03-28T06:17:20.758Z,106.60
2018-03-28T06:19:48.363Z,89.67
2018-03-28T06:22:16.014Z,96.57
2018-03-28T06:24:43.595Z,96.33
2018-03-28T06:27:11.240Z,92.00
2018-03-28T06:29:38.831Z,100.07
2018-03-28T06:32:06.442Z,97.03
2018-03-28T06:34:34.067Z,99.03
2018-03-28T06:37:01.647Z,104.90
2018-03-28T06:39:29.267Z,106.37
2018-03-28T06:41:57.606Z,103.33
2018-03-28T06:44:25.214Z,102.87
2018-03-28T06:46:52.789Z,108.07
2018-03-28T06:49:20.463Z,114.03
2018-03-28T06:51:48.076Z,104.70
2018-03-28T06:54:15.688Z,106.10
2018-03-28T06:56:43.266Z,108.60
2018-03-28T06:59:10.929Z,106.00
2018-03-28T07:01:38.498Z,100.40
2018-03-28T07:04:06.114Z,110.37
2018-03-28T07:06:33.710Z,105.83
2018-03-28T07:09:01.382Z,97.97
2018-03-28T07:11:28.961Z,102.13
2018-03-28T07:13:56.584Z,109.07
2018-03-28T07:16:24.229Z,103.30
2018-03-28T07:18:51.813Z,103.67
2018-03-28T07:21:19.377Z,99.10
2018-03-28T07:23:46.988Z,103.87
2018-03-28T07:26:15.328Z,107.87
2018-03-28T07:28:42.937Z,106.70
2018-03-28T07:31:10.502Z,99.47
2018-03-28T07:33:38.124Z,104.83
2018-03-28T07:36:05.698Z,102.07
2018-03-28T07:38:33.348Z,99.83
2018-03-28T07:41:00.928Z,103.47
2018-03-28T07:43:28.493Z,105.10
2018-03-28T07:45:56.878Z,98.73
2018-03-28T07:48:24.447Z,97.03
2018-03-28T07:50:52.067Z,99.60
2018-03-28T07:53:19.653Z,101.80
2018-03-28T07:55:47.271Z,96.93
2018-03-28T07:58:14.939Z,108.23
2018-03-28T08:00:42.517Z,101.03
2018-03-28T08:03:10.139Z,97.27
2018-03-28T08:05:37.727Z,103.87
2018-03-28T08:08:05.330Z,94.30
2018-03-28T08:10:32.908Z,101.13
2018-03-28T08:13:00.526Z,105.43
2018-03-28T08:15:28.906Z,96.87
2018-03-28T08:17:56.487Z,101.47
2018-03-28T08:20:24.824Z,111.87
2018-03-28T08:22:52.442Z,107.27
2018-03-28T08:25:20.049Z,96.13
2018-03-28T08:27:47.663Z,102.87
2018-03-28T08:30:15.256Z,109.90
2018-03-28T08:32:42.871Z,110.43
2018-03-28T08:35:11.215Z,116.93
2018-03-28T08:37:38.862Z,106.93
2018-03-28T08:40:06.437Z,107.30
2018-03-28T08:42:34.057Z,110.77
2018-03-28T08:45:01.639Z,106.80
2018-03-28T08:47:29.271Z,106.30
2018-03-28T08:49:56.842Z,95.13
2018-03-28T08:52:24.449Z,94.90
2018-03-28T08:54:52.030Z,107.70
2018-03-28T08:57:19.656Z,101.60
2018-03-28T08:59:47.258Z,93.97
2018-03-28T09:02:14.837Z,95.93
2018-03-28T09:04:42.456Z,96.63
2018-03-28T09:07:10.028Z,95.43
2018-03-28T09:09:37.655Z,91.73
2018-03-28T09:12:05.221Z,93.77
2018-03-28T09:14:32.787Z,88.80
2018-03-28T09:17:00.422Z,100.00
2018-03-28T09:19:28.044Z,102.37
2018-03-28T09:21:55.660Z,100.10
2018-03-28T09:24:23.274Z,104.70
2018-03-28T09:26:50.866Z,104.87
2018-03-28T09:29:18.474Z,96.83
2018-03-28T09:31:46.045Z,107.80
2018-03-28T09:34:13.684Z,103.67
2018-03-28T09:36:41.267Z,111.93
2018-03-28T09:39:08.895Z,109.93
2018-03-28T09:41:36.508Z,115.27
2018-03-28T09:44:04.848Z,104.90
2018-03-28T09:46:32.472Z,109.57
2018-03-28T09:49:00.150Z,108.43
2018-03-28T09:51:27.723Z,109.60
2018-03-28T09:53:55.356Z,117.07
2018-03-28T09:56:22.951Z,113.03
2018-03-28T09:58:50.581Z,105.80
2018-03-28T10:01:23.906Z,108.00
2018-03-28T10:03:51.524Z,117.47
2018-03-28T10:06:19.099Z,121.33
2018-03-28T10:08:46.731Z,113.93
2018-03-28T10:11:14.310Z,119.43
2018-03-28T10:13:41.954Z,111.97
2018-03-28T10:16:09.542Z,114.60
2018-03-28T10:18:37.122Z,103.80
2018-03-28T10:21:04.735Z,110.07
2018-03-28T10:23:32.325Z,111.03
2018-03-28T10:25:59.934Z,118.60
2018-03-28T10:28:27.519Z,109.00
2018-03-28T10:30:55.915Z,110.27
2018-03-28T10:33:23.490Z,119.60
2018-03-28T10:35:51.416Z,123.57
2018-03-28T10:38:19.028Z,119.87
2018-03-28T10:40:46.630Z,106.33
2018-03-28T10:43:14.220Z,125.33
2018-03-28T10:45:42.606Z,112.17
2018-03-28T10:48:10.219Z,110.67
2018-03-28T10:50:37.807Z,106.30
2018-03-28T10:53:05.414Z,117.17
2018-03-28T10:55:32.989Z,112.47
2018-03-28T10:58:00.598Z,100.70
2018-03-28T11:00:28.207Z,110.50
2018-03-28T11:02:55.818Z,99.33
2018-03-28T11:05:23.394Z,101.80
2018-03-28T11:07:51.015Z,102.43
2018-03-28T11:10:18.632Z,104.07
2018-03-28T11:12:46.216Z,105.67
2018-03-28T11:15:13.796Z,97.33
2018-03-28T11:17:41.416Z,102.03
2018-03-28T11:20:08.998Z,99.23
2018-03-28T11:22:36.606Z,102.17
2018-03-28T11:25:04.951Z,98.60
2018-03-28T11:27:32.573Z,102.37
2018-03-28T11:30:00.158Z,101.93
2018-03-28T11:32:27.767Z,99.70
2018-03-28T11:34:55.350Z,96.23
2018-03-28T11:37:22.969Z,93.80
2018-03-28T11:39:50.538Z,80.50
2018-03-28T11:42:18.134Z,79.30
2018-03-28T11:44:45.739Z,72.90
2018-03-28T11:47:13.346Z,77.87
2018-03-28T11:49:40.922Z,72.03
2018-03-28T11:52:08.548Z,81.93
2018-03-28T11:54:36.126Z,74.43
2018-03-28T11:57:04.518Z,72.20
2018-03-28T11:59:32.152Z,71.27
2018-03-28T12:01:59.750Z,59.40
2018-03-28T12:04:27.327Z,57.23
2018-03-28T12:06:54.931Z,54.30
2018-03-28T12:09:22.502Z,51.97
2018-03-28T12:11:50.877Z,48.37
2018-03-28T12:14:18.458Z,53.90
2018-03-28T12:16:46.085Z,50.67
2018-03-28T12:19:13.666Z,47.30
2018-03-28T12:21:41.242Z,46.10
2018-03-28T12:24:08.870Z,43.63
2018-03-28T12:26:36.522Z,42.57
2018-03-28T12:29:04.158Z,39.43
2018-03-28T12:31:31.734Z,42.33
2018-03-28T12:33:59.352Z,37.60
2018-03-28T12:36:26.925Z,39.33
2018-03-28T12:38:54.540Z,40.17
2018-03-28T12:41:22.119Z,38.43
2018-03-28T12:43:49.743Z,41.10
2018-03-28T12:46:17.313Z,36.97
2018-03-28T12:48:44.878Z,34.97
2018-03-28T12:51:12.533Z,34.50
2018-03-28T12:53:40.124Z,35.77
2018-03-28T12:56:07.682Z,40.00
2018-03-28T12:58:35.298Z,37.00
2018-03-28T13:01:02.873Z,34.37
2018-03-28T13:03:30.496Z,35.40
2018-03-28T13:05:59.617Z,36.43
2018-03-28T13:08:27.313Z,37.03
2018-03-28T13:10:54.927Z,35.50
2018-03-28T13:13:22.535Z,35.23
2018-03-28T13:15:50.150Z,33.90
2018-03-28T13:18:17.717Z,35.23
2018-03-28T13:20:45.399Z,31.13
2018-03-28T13:23:12.961Z,34.13
2018-03-28T13:25:40.582Z,34.13
2018-03-28T13:28:08.141Z,34.83
2018-03-28T13:30:35.967Z,39.93
2018-03-28T13:33:04.335Z,36.90
2018-03-28T13:35:31.902Z,34.37
2018-03-28T13:37:59.508Z,34.57
2018-03-28T13:40:27.124Z,30.77
2018-03-28T13:42:54.686Z,39.00
2018-03-28T13:45:22.260Z,35.37
2018-03-28T13:47:49.871Z,35.60
2018-03-28T13:50:17.479Z,33.93
2018-03-28T13:52:45.089Z,32.00
2018-03-28T13:55:13.375Z,37.30
2018-03-28T13:57:43.063Z,31.37
2018-03-28T14:00:10.786Z,35.50
2018-03-28T14:02:38.477Z,28.90
2018-03-28T14:05:07.037Z,33.67
2018-03-28T14:07:35.465Z,31.37
2018-03-28T14:10:03.146Z,34.23
2018-03-28T14:12:32.288Z,31.67
2018-03-28T14:15:00.675Z,33.37
2018-03-28T14:17:29.043Z,35.10
2018-03-28T14:19:56.764Z,34.23
2018-03-28T14:22:24.388Z,36.43
2018-03-28T14:24:53.222Z,34.50
2018-03-28T14:27:20.851Z,33.57
2018-03-28T14:29:48.464Z,34.57
2018-03-28T14:32:16.082Z,31.03
2018-03-28T14:34:43.687Z,33.87
2018-03-28T14:37:11.263Z,29.83
2018-03-28T14:39:38.876Z,31.97
2018-03-28T14:42:06.491Z,31.87
2018-03-28T14:44:34.067Z,30.47
2018-03-28T14:47:01.696Z,24.77
2018-03-28T14:49:29.306Z,25.53
2018-03-28T14:51:56.936Z,23.77
2018-03-28T14:54:24.561Z,26.63
2018-03-28T14:56:52.157Z,27.87
2018-03-28T14:59:19.764Z,21.77
2018-03-28T15:01:47.402Z,44.07
2018-03-28T15:04:15.196Z,24.10
2018-03-28T15:06:43.208Z,23.63
2018-03-28T15:09:11.574Z,23.80
2018-03-28T15:11:39.183Z,22.17
2018-03-28T15:14:07.575Z,24.47
2018-03-28T15:16:35.140Z,28.67
2018-03-28T15:19:02.713Z,23.13
2018-03-28T15:21:30.328Z,22.87
2018-03-28T15:23:58.486Z,23.50
2018-03-28T15:29:00.064Z,22.30
2018-03-28T15:31:27.650Z,22.30
2018-03-28T15:33:55.255Z,23.60
2018-03-28T15:36:24.010Z,22.47
2018-03-28T15:38:51.672Z,22.67
2018-03-28T15:41:19.234Z,22.17
2018-03-28T15:43:46.839Z,22.40
2018-03-28T15:46:14.408Z,21.00
2018-03-28T15:48:42.016Z,22.43
2018-03-28T15:51:09.617Z,21.30
2018-03-28T15:53:37.178Z,17.53
2018-03-28T15:56:04.790Z,20.97
2018-03-28T15:58:33.114Z,19.00
2018-03-28T16:01:00.724Z,20.23
2018-03-28T16:03:29.093Z,18.90
2018-03-28T16:05:56.687Z,23.73
2018-03-28T16:08:24.299Z,24.50
2018-03-28T16:10:51.865Z,20.73
2018-03-28T16:13:19.429Z,23.43
2018-03-28T16:15:47.035Z,25.70
2018-03-28T16:18:14.603Z,21.33
2018-03-28T16:20:42.210Z,23.30
2018-03-28T16:23:09.817Z,20.90
2018-03-28T16:25:37.397Z,23.00
2018-03-28T16:28:04.998Z,32.10
2018-03-28T16:30:32.563Z,25.57
2018-03-28T16:33:00.191Z,23.13
2018-03-28T16:35:27.758Z,24.63
2018-03-28T16:37:55.327Z,25.57
2018-03-28T16:40:22.942Z,22.00
2018-03-28T16:42:50.522Z,22.50
2018-03-28T16:45:18.126Z,22.70
2018-03-28T16:47:45.687Z,24.17
2018-03-28T16:50:13.292Z,24.97
2018-03-28T16:52:41.057Z,26.33
2018-03-28T16:55:08.717Z,22.90
2018-03-28T16:57:36.282Z,27.77
2018-03-28T17:00:03.905Z,28.40
2018-03-28T17:02:31.468Z,26.23
2018-03-28T17:04:59.804Z,24.77
2018-03-28T17:07:27.404Z,22.57
2018-03-28T17:09:54.974Z,21.77
2018-03-28T17:12:22.578Z,20.43
2018-03-28T17:14:50.135Z,18.57
2018-03-28T17:17:17.767Z,19.40
2018-03-28T17:19:46.098Z,20.23
2018-03-28T17:22:13.713Z,19.90
2018-03-28T17:24:41.313Z,21.87
2018-03-28T17:27:08.880Z,25.33
2018-03-28T17:29:36.479Z,20.23
2018-03-28T17:32:06.166Z,17.90
2018-03-28T17:34:33.792Z,18.77
2018-03-28T17:37:01.412Z,27.00
2018-03-28T17:42:03.706Z,15.90
2018-03-28T17:44:32.051Z,17.67
2018-03-28T17:46:59.613Z,20.17
2018-03-28T17:49:27.243Z,36.17
2018-03-28T17:51:54.812Z,25.60
2018-03-28T17:54:22.391Z,19.97
2018-03-28T17:56:50.003Z,26.67
2018-03-28T17:59:17.844Z,27.13
2018-03-28T18:01:46.357Z,20.00
2018-03-28T18:04:17.616Z,25.63
2018-03-28T18:06:50.178Z,24.17
2018-03-28T18:09:17.828Z,23.80
2018-03-28T18:11:46.717Z,21.20
2018-03-28T18:14:16.480Z,19.27
2018-03-28T18:16:45.998Z,21.57
2018-03-28T18:19:17.457Z,20.37
2018-03-28T18:21:46.018Z,22.33
2018-03-28T18:24:15.049Z,20.37
2018-03-28T18:26:43.527Z,25.60
2018-03-28T18:29:11.138Z,27.17
2018-03-28T18:31:38.753Z,22.80
2018-03-28T18:34:06.327Z,21.67
2018-03-28T18:36:33.900Z,24.77
2018-03-28T18:39:01.514Z,29.30
2018-03-28T18:41:29.086Z,33.60
2018-03-28T18:43:56.698Z,34.20
2018-03-28T18:46:24.270Z,32.00
2018-03-28T18:48:51.839Z,28.80
2018-03-28T18:51:19.450Z,24.80
2018-03-28T18:53:47.058Z,25.73
2018-03-28T18:56:14.632Z,21.80
2018-03-28T18:58:42.243Z,27.10
2018-03-28T19:01:10.623Z,27.80
2018-03-28T19:03:38.230Z,23.40
2018-03-28T19:06:05.798Z,21.40
2018-03-28T19:08:33.396Z,25.10
2018-03-28T19:11:01.022Z,21.57
2018-03-28T19:13:28.584Z,25.90
2018-03-28T19:15:56.157Z,24.07
2018-03-28T19:18:23.783Z,27.77
2018-03-28T19:20:51.351Z,29.37
2018-03-28T19:23:18.929Z,25.77
2018-03-28T19:25:46.544Z,28.77
2018-03-28T19:28:14.115Z,30.63
2018-03-28T19:30:41.679Z,27.57
2018-03-28T19:33:09.286Z,32.27
2018-03-28T19:35:36.894Z,29.03
2018-03-28T19:38:04.462Z,25.70
2018-03-28T19:40:32.078Z,26.23
2018-03-28T19:42:59.646Z,29.40
2018-03-28T19:45:27.260Z,28.03
2018-03-28T19:47:54.844Z,36.37
2018-03-28T19:50:22.454Z,31.40
2018-03-28T19:52:50.058Z,29.40
2018-03-28T19:55:17.631Z,33.17
2018-03-28T19:57:45.247Z,30.17
2018-03-28T20:00:12.813Z,31.40
2018-03-28T20:02:40.437Z,31.00
2018-03-28T20:05:08.775Z,28.57
2018-03-28T20:07:36.393Z,33.37
2018-03-28T20:10:03.967Z,33.33
2018-03-28T20:12:31.626Z,32.93
2018-03-28T20:14:59.191Z,31.80
2018-03-28T20:17:26.770Z,37.33
2018-03-28T20:19:54.400Z,31.50
2018-03-28T20:22:21.977Z,27.93
2018-03-28T20:24:49.541Z,32.00
2018-03-28T20:27:17.147Z,28.83
2018-03-28T20:29:44.779Z,22.70
2018-03-28T20:32:12.352Z,25.53
2018-03-28T20:37:13.890Z,26.67
2018-03-28T20:39:41.457Z,24.13
2018-03-28T20:42:09.063Z,22.27
2018-03-28T20:44:36.629Z,23.63
2018-03-28T20:47:04.260Z,26.43
2018-03-28T20:49:31.840Z,26.87
2018-03-28T20:51:59.405Z,26.47
2018-03-28T20:54:27.014Z,29.17
2018-03-28T20:56:54.619Z,26.50
2018-03-28T20:59:22.229Z,29.57
2018-03-28T21:01:49.791Z,27.83
2018-03-28T21:04:17.407Z,27.73
2018-03-28T21:06:44.980Z,25.83
2018-03-28T21:09:13.848Z,24.83
2018-03-28T21:11:41.600Z,18.83
2018-03-28T21:14:09.981Z,20.80
2018-03-28T21:16:37.543Z,20.80
2018-03-28T21:19:05.146Z,19.13
2018-03-28T21:21:33.531Z,20.70
2018-03-28T21:24:01.866Z,24.10
2018-03-28T21:26:34.103Z,20.10
2018-03-28T21:29:02.153Z,22.20
2018-03-28T21:31:30.107Z,24.73
2018-03-28T21:33:58.247Z,26.63
2018-03-28T21:36:25.886Z,23.07
2018-03-28T21:38:53.778Z,22.73
2018-03-28T21:41:21.852Z,22.50
2018-03-28T21:43:49.464Z,24.13
2018-03-28T21:46:18.038Z,25.50
2018-03-28T21:48:45.764Z,21.83
2018-03-28T21:51:13.358Z,23.57
2018-03-28T21:53:40.971Z,18.73
2018-03-28T21:56:09.306Z,21.43
2018-03-28T21:58:38.606Z,24.40
2018-03-28T22:01:08.451Z,25.40
2018-03-28T22:03:36.237Z,19.80
2018-03-28T22:06:04.528Z,24.93
2018-03-28T22:08:33.259Z,26.77
2018-03-28T22:11:02.012Z,22.57
2018-03-28T22:13:30.487Z,22.33
2018-03-28T22:16:00.033Z,25.00
2018-03-28T22:18:28.422Z,26.17
2018-03-28T22:20:56.756Z,24.80
2018-03-28T22:23:24.321Z,27.30
2018-03-28T22:25:52.448Z,29.00
2018-03-28T22:28:20.039Z,28.90
2018-03-28T22:30:49.576Z,31.10
2018-03-28T22:33:17.515Z,30.37
2018-03-28T22:35:48.246Z,30.30
2018-03-28T22:38:19.488Z,25.97
2018-03-28T22:40:47.568Z,32.00
2018-03-28T22:43:15.139Z,28.07
2018-03-28T22:45:42.757Z,29.43
2018-03-28T22:48:10.910Z,30.27
2018-03-28T22:50:40.360Z,34.93
2018-03-28T22:53:08.501Z,34.40
2018-03-28T22:55:37.155Z,35.10
2018-03-28T22:58:04.755Z,33.27
2018-03-28T23:00:32.378Z,27.80
2018-03-28T23:02:59.979Z,30.40
2018-03-28T23:05:27.560Z,17.97
2018-03-28T23:07:55.175Z,15.47
2018-03-28T23:10:22.794Z,12.20
2018-03-28T23:12:50.360Z,10.90
2018-03-28T23:15:17.970Z,11.30
2018-03-28T23:17:45.551Z,11.10
2018-03-28T23:20:14.247Z,11.70
2018-03-28T23:22:41.815Z,8.37
2018-03-28T23:25:10.595Z,9.60
2018-03-28T23:27:38.212Z,11.57
2018-03-28T23:30:05.778Z,10.10
2018-03-28T23:32:33.346Z,9.37
2018-03-28T23:35:01.710Z,8.60
2018-03-28T23:37:29.278Z,10.63
2018-03-28T23:39:56.898Z,11.10
2018-03-28T23:42:24.462Z,4.67
2018-03-28T23:44:52.064Z,8.97
2018-03-28T23:47:19.680Z,10.07
2018-03-28T23:49:47.290Z,7.13
2018-03-28T23:52:14.850Z,6.83
2018-03-28T23:54:43.218Z,5.67
2018-03-28T23:57:10.779Z,4.20
2018-03-28T23:59:38.383Z,6.60
